Time;durP1;ratioP1;P1;durP2;ratioP2;P2;SDS_P1;SDS_P2;PMS_P1;PMS_P2;Temp;Humidity;BMP_temperature;BMP_pressure;BME280_temperature;BME280_humidity;BME280_pressure;Samples;Min_cycle;Max_cycle;Signal;HPM_P1;HPM_P2
2023/05/07 00:00:51;;;;;;;4.00;3.50;;;;;;;13.70;55.59;97462.42;110234;1242;60075;-73
2023/05/07 00:03:22;;;;;;;4.30;3.40;;;;;;;13.70;55.73;97456.13;110221;1240;71464;-73
2023/05/07 00:05:54;;;;;;;4.10;3.50;;;;;;;13.69;55.29;97452.54;110189;1242;68549;-73
2023/05/07 00:08:26;;;;;;;4.60;3.90;;;;;;;13.70;55.51;97452.67;110187;1242;68567;-73
2023/05/07 00:10:59;;;;;;;4.60;3.80;;;;;;;13.69;55.58;97455.54;110184;1242;59833;-73
2023/05/07 00:13:35;;;;;;;5.30;3.40;;;;;;;13.67;55.97;97455.87;110187;1242;59672;-73
2023/05/07 00:16:07;;;;;;;6.50;3.70;;;;;;;13.64;56.21;97454.72;110303;1242;70828;-73
2023/05/07 00:18:39;;;;;;;4.80;3.30;;;;;;;13.62;56.05;97451.20;110271;1241;68562;-72
2023/05/07 00:21:09;;;;;;;6.70;3.80;;;;;;;13.61;55.98;97451.52;110235;1241;68497;-73
2023/05/07 00:23:41;;;;;;;4.60;3.40;;;;;;;13.59;55.98;97455.48;110241;1241;59728;-73
2023/05/07 00:26:11;;;;;;;5.00;3.40;;;;;;;13.58;55.91;97452.59;110214;1241;59709;-73
2023/05/07 00:28:42;;;;;;;5.50;3.30;;;;;;;13.57;56.30;97452.14;110155;1240;69537;-73
2023/05/07 00:31:13;;;;;;;4.70;3.70;;;;;;;13.57;55.87;97450.94;110261;1241;68768;-73
2023/05/07 00:33:46;;;;;;;5.00;4.20;;;;;;;13.57;56.18;97452.04;110204;1242;69249;-73
2023/05/07 00:36:19;;;;;;;4.40;3.50;;;;;;;13.55;56.01;97449.15;110200;1242;59680;-73
2023/05/07 00:38:52;;;;;;;5.10;3.60;;;;;;;13.55;55.99;97446.94;110374;1241;60053;-73
2023/05/07 00:41:24;;;;;;;3.80;3.00;;;;;;;13.54;55.73;97447.17;110214;1242;70581;-72
2023/05/07 00:43:57;;;;;;;4.30;3.20;;;;;;;13.54;55.65;97448.37;110224;1242;68464;-72
2023/05/07 00:46:30;;;;;;;4.80;3.60;;;;;;;13.54;55.98;97447.70;110209;1240;67585;-72
2023/05/07 00:49:02;;;;;;;5.20;4.00;;;;;;;13.54;55.94;97447.34;110217;1248;59699;-73
2023/05/07 00:51:33;;;;;;;4.30;3.20;;;;;;;13.53;56.01;97449.71;110174;1240;59714;-73
2023/05/07 00:54:05;;;;;;;3.30;2.90;;;;;;;13.53;55.84;97447.09;110240;1240;71054;-73
2023/05/07 00:56:38;;;;;;;4.70;3.40;;;;;;;13.54;55.70;97443.14;110207;1247;69242;-74
2023/05/07 00:59:10;;;;;;;6.30;4.10;;;;;;;13.53;55.87;97443.19;110188;1242;69557;-74
2023/05/07 01:01:44;;;;;;;5.00;3.70;;;;;;;13.53;55.90;97443.55;110160;1240;60104;-71
2023/05/07 01:04:17;;;;;;;4.70;3.50;;;;;;;13.52;55.86;97444.69;110262;1241;59604;-73
2023/05/07 01:06:51;;;;;;;4.50;3.50;;;;;;;13.51;55.90;97444.63;110246;1242;70664;-73
2023/05/07 01:09:25;;;;;;;5.10;3.80;;;;;;;13.50;56.26;97444.86;110192;1242;69148;-73
2023/05/07 01:11:59;;;;;;;5.00;3.90;;;;;;;13.48;56.54;97446.09;110137;1244;68535;-73
2023/05/07 01:14:32;;;;;;;4.00;3.40;;;;;;;13.46;56.35;97448.73;109874;1240;59716;-73
2023/05/07 01:17:04;;;;;;;6.40;4.30;;;;;;;13.42;56.98;97449.21;110128;1241;59710;-74
2023/05/07 01:19:34;;;;;;;4.80;3.50;;;;;;;13.41;56.69;97446.52;110184;1240;71681;-72
2023/05/07 01:22:15;;;;;;;5.50;3.60;;;;;;;13.40;56.63;97441.04;110059;1242;68486;-71
2023/05/07 01:24:53;;;;;;;4.60;3.30;;;;;;;13.39;56.80;97440.23;110139;1244;69586;-73
2023/05/07 01:27:26;;;;;;;4.60;3.50;;;;;;;13.36;57.07;97442.09;110142;1243;59728;-73
2023/05/07 01:29:55;;;;;;;4.40;3.70;;;;;;;13.35;56.98;97440.02;110176;1244;59730;-73
2023/05/07 01:32:44;;;;;;;5.80;3.80;;;;;;;13.34;57.03;97445.50;110131;1241;70645;-72
2023/05/07 01:35:22;;;;;;;4.00;3.30;;;;;;;13.33;57.43;97444.36;110220;1245;69260;-73
2023/05/07 01:37:54;;;;;;;6.40;3.90;;;;;;;13.32;57.70;97443.27;110100;1245;69320;-72
2023/05/07 01:40:28;;;;;;;4.40;3.60;;;;;;;13.31;57.37;97445.95;110027;1245;59746;-74
2023/05/07 01:43:03;;;;;;;5.70;3.30;;;;;;;13.31;57.77;97441.26;110237;1240;59676;-72
2023/05/07 01:45:36;;;;;;;3.90;3.20;;;;;;;13.30;58.44;97443.92;110135;1242;71223;-72
2023/05/07 01:48:11;;;;;;;4.20;3.30;;;;;;;13.27;59.73;97442.75;110206;1240;67485;-72
2023/05/07 01:50:43;;;;;;;5.70;3.50;;;;;;;13.22;59.86;97447.20;110170;1242;69092;-73
2023/05/07 01:53:16;;;;;;;4.60;3.40;;;;;;;13.19;59.58;97441.31;110203;1240;59707;-73
2023/05/07 01:55:49;;;;;;;5.30;3.30;;;;;;;13.17;60.09;97444.27;110130;1244;59694;-73
2023/05/07 01:58:23;;;;;;;4.20;3.40;;;;;;;13.15;59.45;97440.09;110134;1241;70526;-73
2023/05/07 02:00:56;;;;;;;3.60;3.10;;;;;;;13.12;59.79;97440.70;110146;1244;68466;-73
2023/05/07 02:03:30;;;;;;;3.70;3.00;;;;;;;13.10;59.86;97442.77;110100;1240;69417;-73
2023/05/07 02:06:07;;;;;;;3.80;3.20;;;;;;;13.08;59.64;97438.16;109672;1241;734415;-73
2023/05/07 02:08:41;;;;;;;4.50;2.90;;;;;;;13.09;58.84;97435.82;110118;1242;59687;-73
2023/05/07 02:11:13;;;;;;;4.10;2.70;;;;;;;13.06;58.97;97429.05;110161;1243;70694;-73
2023/05/07 02:13:46;;;;;;;4.20;3.50;;;;;;;13.04;59.26;97425.07;110089;1244;69378;-73
2023/05/07 02:16:19;;;;;;;4.60;3.40;;;;;;;13.01;59.45;97424.62;110149;1244;68732;-72
2023/05/07 02:18:51;;;;;;;5.10;3.70;;;;;;;12.97;61.83;97427.04;110222;1242;59756;-73
2023/05/07 02:21:23;;;;;;;3.80;2.90;;;;;;;12.93;61.46;97429.98;110128;1243;59678;-73
2023/05/07 02:23:54;;;;;;;3.90;3.00;;;;;;;12.90;61.44;97430.27;110147;1243;71799;-73
2023/05/07 02:26:25;;;;;;;4.10;2.80;;;;;;;12.88;60.45;97430.55;110106;1244;68251;-73
2023/05/07 02:28:56;;;;;;;4.40;3.10;;;;;;;12.87;60.93;97431.22;110066;1244;69239;-73
2023/05/07 02:31:27;;;;;;;5.90;3.40;;;;;;;12.83;62.79;97428.17;110190;1242;59696;-72
2023/05/07 02:34:00;;;;;;;3.90;3.20;;;;;;;12.81;61.22;97425.02;110121;1245;59676;-73
2023/05/07 02:36:32;;;;;;;3.80;2.50;;;;;;;12.79;61.03;97422.39;110159;1241;71244;-73
2023/05/07 02:39:07;;;;;;;5.30;3.40;;;;;;;12.76;61.42;97422.81;110215;1241;69463;-72
2023/05/07 02:41:40;;;;;;;4.90;3.70;;;;;;;12.73;61.10;97420.42;110189;1241;68500;-73
2023/05/07 02:44:14;;;;;;;3.90;3.00;;;;;;;12.68;61.89;97423.60;110173;1241;59744;-73
2023/05/07 02:46:50;;;;;;;4.40;4.00;;;;;;;12.64;63.00;97426.73;110131;1241;59743;-73
2023/05/07 02:49:26;;;;;;;4.60;3.50;;;;;;;12.62;63.23;97427.66;110084;1245;70646;-73
2023/05/07 02:52:06;;;;;;;5.10;3.60;;;;;;;12.59;61.80;97423.66;110114;1241;69492;-73
2023/05/07 02:54:38;;;;;;;5.60;3.70;;;;;;;12.57;61.84;97427.84;110175;1242;68514;-73
2023/05/07 02:57:14;;;;;;;4.70;3.30;;;;;;;12.55;62.57;97429.23;110231;1240;59747;-72
2023/05/07 02:59:46;;;;;;;5.00;3.30;;;;;;;12.54;61.64;97428.97;110072;1241;59692;-73
2023/05/07 03:02:20;;;;;;;3.90;3.20;;;;;;;12.53;61.69;97432.56;110151;1244;70719;-73
2023/05/07 03:04:52;;;;;;;4.40;3.20;;;;;;;12.48;61.90;97433.59;109962;1245;69344;-73
2023/05/07 03:07:24;;;;;;;5.10;3.60;;;;;;;12.46;61.66;97437.14;110139;1241;69172;-72
2023/05/07 03:09:56;;;;;;;3.90;2.70;;;;;;;12.42;61.72;97440.74;110110;1241;59772;-74
2023/05/07 03:12:26;;;;;;;4.20;3.60;;;;;;;12.38;62.04;97446.71;110124;1244;59745;-73
2023/05/07 03:14:57;;;;;;;3.50;2.90;;;;;;;12.33;62.57;97443.41;110140;1244;71742;-74
2023/05/07 03:17:27;;;;;;;3.80;3.10;;;;;;;12.31;62.39;97441.14;110148;1241;69428;-74
2023/05/07 03:19:58;;;;;;;4.30;3.20;;;;;;;12.28;62.66;97442.94;109910;1245;69341;-73
2023/05/07 03:22:28;;;;;;;4.20;3.30;;;;;;;12.26;62.54;97446.75;110139;1245;59676;-74
2023/05/07 03:24:59;;;;;;;4.90;3.10;;;;;;;12.24;62.40;97452.80;109822;1245;59717;-72
2023/05/07 03:27:30;;;;;;;4.60;3.70;;;;;;;12.24;62.54;97458.27;110129;1241;71618;-72
2023/05/07 03:30:02;;;;;;;3.70;3.00;;;;;;;12.24;62.97;97462.42;110202;1241;68394;-72
2023/05/07 03:32:32;;;;;;;5.60;3.80;;;;;;;12.27;63.19;97462.45;110143;1241;69453;-73
2023/05/07 03:35:07;;;;;;;5.60;3.60;;;;;;;12.29;63.19;97462.64;110102;1241;59721;-73
2023/05/07 03:37:39;;;;;;;4.80;2.90;;;;;;;12.32;62.93;97467.23;110089;1244;59675;-72
2023/05/07 03:40:10;;;;;;;4.20;3.30;;;;;;;12.35;62.77;97469.50;109820;1241;71360;-74
2023/05/07 03:42:47;;;;;;;4.60;3.40;;;;;;;12.36;62.82;97471.30;110205;1241;69193;-73
2023/05/07 03:45:19;;;;;;;6.00;3.40;;;;;;;12.37;62.99;97470.70;109939;1241;68900;-72
2023/05/07 03:47:58;;;;;;;4.30;3.40;;;;;;;12.40;64.54;97471.38;110101;1243;59657;-73
2023/05/07 03:50:29;;;;;;;4.10;2.80;;;;;;;12.43;64.62;97468.27;110113;1245;59721;-73
2023/05/07 03:53:00;;;;;;;3.50;2.70;;;;;;;12.47;65.52;97472.39;110128;1245;71413;-76
2023/05/07 03:55:31;;;;;;;3.60;2.60;;;;;;;12.51;63.45;97471.86;110003;1245;67863;-75
2023/05/07 03:58:02;;;;;;;4.30;3.10;;;;;;;12.55;65.01;97476.95;110139;1241;68372;-74
2023/05/07 04:00:37;;;;;;;5.30;3.70;;;;;;;12.59;66.27;97478.20;110061;1242;59735;-73
2023/05/07 04:03:15;;;;;;;4.40;4.00;;;;;;;12.63;67.20;97471.76;110166;1247;59664;-73
2023/05/07 04:05:47;;;;;;;3.80;3.10;;;;;;;12.67;65.21;97471.05;110185;1242;71350;-74
2023/05/07 04:08:17;;;;;;;3.30;3.00;;;;;;;12.71;64.26;97470.40;110247;1242;69659;-75
2023/05/07 04:10:54;;;;;;;3.40;3.00;;;;;;;12.73;64.34;97474.31;110176;1242;68574;-74
2023/05/07 04:13:25;;;;;;;5.30;3.30;;;;;;;12.75;63.80;97473.59;110123;1244;59764;-73
2023/05/07 04:15:55;;;;;;;4.10;3.20;;;;;;;12.76;64.57;97474.39;110212;1242;59654;-73
2023/05/07 04:18:25;;;;;;;4.00;2.80;;;;;;;12.80;65.76;97476.73;110101;1241;71326;-74
2023/05/07 04:20:54;;;;;;;3.90;3.50;;;;;;;12.85;65.54;97480.33;110138;1241;69244;-74
2023/05/07 04:23:24;;;;;;;4.80;3.20;;;;;;;12.88;66.34;97477.80;110238;1241;69870;-74
2023/05/07 04:25:54;;;;;;;;;;;;;;;12.91;66.41;97480.48;110164;1244;59700;-74
2023/05/07 04:28:32;;;;;;;;;;;;;;;12.97;64.85;97481.44;110238;1242;59643;-73
2023/05/07 04:31:01;;;;;;;;;;;;;;;13.05;64.77;97480.08;110134;1245;70026;-74
2023/05/07 04:33:31;;;;;;;;;;;;;;;13.16;64.74;97481.27;110129;1241;69232;-74
2023/05/07 04:36:04;;;;;;;;;;;;;;;13.25;64.76;97479.49;110122;1245;69635;-74
2023/05/07 04:38:36;;;;;;;;;;;;;;;13.35;64.14;97475.75;110210;1242;59740;-73
2023/05/07 04:41:06;;;;;;;;;;;;;;;13.45;63.54;97478.21;110280;1242;59704;-74
2023/05/07 04:43:38;;;;;;;;;;;;;;;13.56;62.82;97477.13;110256;1241;72249;-73
2023/05/07 04:46:07;;;;;;;;;;;;;;;13.68;62.32;97476.11;110240;1241;67361;-73
2023/05/07 04:48:37;;;;;;;;;;;;;;;13.81;62.09;97478.19;110363;1240;69294;-72
2023/05/07 04:51:07;;;;;;;;;;;;;;;13.94;61.65;97483.35;110115;1244;59675;-74
2023/05/07 04:53:37;;;;;;;;;;;;;;;14.05;61.24;97485.55;110109;1241;59731;-73
2023/05/07 04:56:06;;;;;;;;;;;;;;;14.13;60.74;97485.95;110290;1241;70375;-74
2023/05/07 04:58:40;;;;;;;;;;;;;;;14.13;60.06;97488.77;110184;1242;69225;-73
2023/05/07 05:01:10;;;;;;;;;;;;;;;14.05;59.39;97491.02;110223;1240;69263;-74
2023/05/07 05:03:40;;;;;;;;;;;;;;;13.99;59.59;97490.07;110124;1241;59718;-73
2023/05/07 05:06:10;;;;;;;;;;;;;;;13.99;59.96;97495.34;110203;1244;59711;-75
2023/05/07 05:08:39;;;;;;;;;;;;;;;14.07;59.89;97496.61;110255;1242;70638;-75
2023/05/07 05:11:10;;;;;;;;;;;;;;;14.12;59.51;97498.98;110060;1244;69728;-76
2023/05/07 05:13:40;;;;;;;;;;;;;;;14.14;59.29;97501.11;110192;1243;69098;-75
2023/05/07 05:16:12;;;;;;;;;;;;;;;14.17;59.02;97497.16;110177;1242;59667;-73
2023/05/07 05:18:42;;;;;;;;;;;;;;;14.24;59.15;97498.27;110230;1242;59692;-76
2023/05/07 05:21:12;;;;;;;;;;;;;;;14.32;58.95;97500.85;110279;1240;71214;-73
2023/05/07 05:23:41;;;;;;;;;;;;;;;14.43;59.02;97502.11;110262;1241;69632;-73
2023/05/07 05:26:11;;;;;;;;;;;;;;;14.64;59.00;97506.73;110160;1242;69185;-74
2023/05/07 05:28:41;;;;;;;;;;;;;;;14.88;58.88;97510.12;110197;1242;59694;-73
2023/05/07 05:31:11;;;;;;;;;;;;;;;15.02;58.14;97506.59;110116;1241;59705;-72
2023/05/07 05:33:40;;;;;;;;;;;;;;;15.06;57.90;97506.02;110174;1240;71389;-72
2023/05/07 05:36:10;;;;;;;;;;;;;;;15.02;57.76;97507.11;110103;1245;69597;-72
2023/05/07 05:38:40;;;;;;;;;;;;;;;14.89;57.31;97516.47;110199;1242;69239;-73
2023/05/07 05:41:10;;;;;;;;;;;;;;;14.82;57.52;97520.13;110229;1242;59685;-73
2023/05/07 05:43:40;;;;;;;;;;;;;;;14.74;57.83;97519.06;110246;1241;59699;-73
2023/05/07 05:46:11;;;;;;;;;;;;;;;14.71;58.57;97519.31;110268;1240;70333;-73
2023/05/07 05:48:40;;;;;;;;;;;;;;;14.69;57.83;97519.70;110257;1241;68454;-73
2023/05/07 05:51:11;;;;;;;;;;;;;;;14.60;58.63;97520.08;110207;1241;69155;-72
2023/05/07 05:53:40;;;;;;;;;;;;;;;14.58;58.42;97522.04;110227;1242;59666;-72
2023/05/07 05:56:10;;;;;;;;;;;;;;;14.54;58.43;97516.79;110131;1240;60144;-72
2023/05/07 05:58:41;;;;;;;;;;;;;;;14.47;59.38;97519.85;110109;1244;71169;-73
2023/05/07 06:01:11;;;;;;;;;;;;;;;14.42;59.22;97521.98;110099;1244;69830;-74
2023/05/07 06:03:40;;;;;;;;;;;;;;;14.35;59.00;97520.81;110180;1242;69741;-74
2023/05/07 06:06:14;;;;;;;;;;;;;;;14.29;59.18;97520.88;110181;1242;59654;-74
2023/05/07 06:08:43;;;;;;;;;;;;;;;14.23;59.29;97522.87;110211;1240;59712;-73
2023/05/07 06:11:14;;;;;;;;;;;;;;;14.20;59.58;97522.27;110356;1242;71979;-75
2023/05/07 06:13:44;;;;;;;;;;;;;;;14.16;61.18;97529.86;110316;1241;68724;-74
2023/05/07 06:16:14;;;;;;;;;;;;;;;14.14;63.88;97533.66;110248;1244;68636;-74
2023/05/07 06:18:45;;;;;;;;;;;;;;;14.15;64.37;97543.80;110310;1242;59688;-73
2023/05/07 06:21:15;;;;;;;;;;;;;;;14.17;64.35;97545.17;110180;1242;59699;-75
2023/05/07 06:23:43;;;;;;;;;;;;;;;14.23;63.21;97544.78;110226;1242;69449;-74
2023/05/07 06:26:12;;;;;;;;;;;;;;;14.34;61.51;97538.25;110102;1244;70039;-74
2023/05/07 06:28:42;;;;;;;;;;;;;;;14.44;60.46;97534.25;110257;1242;69925;-74
2023/05/07 06:31:13;;;;;;;;;;;;;;;14.52;60.16;97532.88;110352;1240;59678;-75
2023/05/07 06:33:43;;;;;;;;;;;;;;;14.58;59.91;97536.27;110347;1241;59638;-76
2023/05/07 06:36:12;;;;;;;;;;;;;;;14.63;59.81;97537.59;110324;1240;71789;-74
2023/05/07 06:38:41;;;;;;;;;;;;;;;14.68;59.96;97540.95;110219;1242;68846;-73
2023/05/07 06:41:10;;;;;;;;;;;;;;;14.78;59.51;97541.65;110252;1242;70344;-74
2023/05/07 06:43:39;;;;;;;;;;;;;;;14.88;59.44;97537.48;110163;1241;59723;-74
2023/05/07 06:46:30;;;;;;;;;;;;;;;15.10;59.21;97531.84;110171;1242;59690;-74
2023/05/07 06:49:00;;;;;;;;;;;;;;;15.49;58.56;97524.77;110125;1240;71419;-74
2023/05/07 06:51:30;;;;;;;;;;;;;;;16.10;57.92;97526.27;110218;1245;69316;-75
2023/05/07 06:54:04;;;;;;;;;;;;;;;16.65;57.27;97525.61;109982;1241;69103;-73
2023/05/07 06:56:34;;;;;;;;;;;;;;;17.09;55.57;97527.36;110314;1243;59740;-74
2023/05/07 06:59:03;;;;;;;;;;;;;;;17.35;54.89;97523.91;110237;1240;59718;-75
2023/05/07 07:01:35;;;;;;;;;;;;;;;17.45;53.61;97526.96;110217;1244;71296;-73
2023/05/07 07:04:05;;;;;;;;;;;;;;;17.45;52.84;97525.89;110172;1245;69816;-74
2023/05/07 07:06:36;;;;;;;;;;;;;;;17.69;53.26;97530.42;110466;1240;69268;-74
2023/05/07 07:09:08;;;;;;;;;;;;;;;17.80;52.92;97534.67;110399;1245;59691;-75
2023/05/07 07:11:37;;;;;;;;;;;;;;;17.94;51.40;97534.60;110275;1244;59646;-75
2023/05/07 07:14:06;;;;;;;;;;;;;;;17.96;52.36;97538.98;110275;1241;71266;-74
2023/05/07 07:16:38;;;;;;;;;;;;;;;17.76;51.65;97539.75;110171;1244;69756;-75
2023/05/07 07:19:08;;;;;;;;;;;;;;;17.83;52.81;97539.81;110178;1244;69834;-76
2023/05/07 07:21:37;;;;;;;;;;;;;;;18.23;52.12;97544.41;110170;1241;59745;-75
2023/05/07 07:24:05;;;;;;;;;;;;;;;18.24;50.23;97542.27;110245;1242;59685;-76
2023/05/07 07:26:34;;;;;;;;;;;;;;;18.28;50.20;97543.73;110139;1244;71328;-74
2023/05/07 07:29:03;;;;;;;;;;;;;;;18.39;49.29;97548.38;110204;1243;69120;-74
2023/05/07 07:31:32;;;;;;;;;;;;;;;18.50;48.28;97542.12;110223;1244;69052;-74
2023/05/07 07:34:01;;;;;;;;;;;;;;;19.08;48.54;97545.64;110160;1243;59735;-74
2023/05/07 07:36:30;;;;;;;;;;;;;;;19.49;47.85;97543.05;110136;1244;59654;-74
2023/05/07 07:39:13;;;;;;;;;;;;;;;19.74;46.06;97549.96;110097;1251;71485;-74
2023/05/07 07:41:43;;;;;;;;;;;;;;;19.96;47.00;97554.27;110207;1245;67560;-74
2023/05/07 07:44:13;;;;;;;;;;;;;;;20.07;45.86;97559.20;110135;1242;69204;-72
2023/05/07 07:46:46;;;;;;;;;;;;;;;20.24;46.04;97562.69;110067;1246;59756;-73
2023/05/07 07:49:16;;;;;;;;;;;;;;;20.17;45.10;97562.38;110164;1241;59760;-73
2023/05/07 07:51:45;;;;;;;;;;;;;;;19.88;46.00;97565.20;110143;1244;71989;-73
2023/05/07 07:54:14;;;;;;;;;;;;;;;19.98;46.53;97564.16;110261;1244;69069;-72
2023/05/07 07:56:43;;;;;;;;;;;;;;;19.80;45.39;97563.73;110194;1241;69882;-73
2023/05/07 07:59:17;;;;;;;;;;;;;;;19.71;46.47;97561.20;110137;1243;59696;-73
2023/05/07 08:01:48;;;;;;;;;;;;;;;19.79;46.86;97559.25;110154;1244;59673;-73
2023/05/07 08:04:17;;;;;;;;;;;;;;;19.95;46.50;97556.38;110162;1244;71365;-73
2023/05/07 08:06:47;;;;;;;;;;;;;;;20.16;47.06;97558.10;110121;1243;69694;-73
2023/05/07 08:09:17;;;;;;;;;;;;;;;20.22;46.69;97562.00;110122;1245;69021;-73
2023/05/07 08:11:47;;;;;;;;;;;;;;;20.12;48.05;97562.98;110097;1245;59710;-72
2023/05/07 08:14:15;;;;;;;;;;;;;;;19.88;47.49;97562.92;110154;1241;59735;-73
2023/05/07 08:16:46;;;;;;;;;;;;;;;19.78;48.68;97564.33;110133;1246;72219;-74
2023/05/07 08:19:15;;;;;;;;;;;;;;;19.68;49.14;97557.16;110112;1244;69121;-73
2023/05/07 08:21:45;;;;;;;;;;;;;;;19.58;49.01;97554.42;110100;1241;69101;-73
2023/05/07 08:24:15;;;;;;;;;;;;;;;19.51;48.64;97552.25;110021;1245;59735;-73
2023/05/07 08:26:44;;;;;;;;;;;;;;;19.31;49.23;97554.15;110159;1241;60110;-73
2023/05/07 08:29:17;;;;;;;;;;;;;;;19.15;50.15;97550.96;110092;1241;71745;-73
2023/05/07 08:31:47;;;;;;;;;;;;;;;19.20;49.45;97549.52;110192;1244;69642;-73
2023/05/07 08:34:15;;;;;;;;;;;;;;;19.23;49.70;97548.70;110187;1243;68092;-73
2023/05/07 08:36:48;;;;;;;;;;;;;;;19.45;49.37;97548.09;110270;1243;59760;-73
2023/05/07 08:39:18;;;;;;;;;;;;;;;19.66;48.63;97546.79;110149;1245;59673;-72
2023/05/07 08:41:48;;;;;;;;;;;;;;;19.73;49.08;97549.30;110093;1244;71345;-73
2023/05/07 08:44:20;;;;;;;;;;;;;;;19.81;48.27;97552.66;110161;1245;69046;-73
2023/05/07 08:46:53;;;;;;;;;;;;;;;19.80;47.60;97552.98;110150;1241;69726;-73
2023/05/07 08:49:23;;;;;;;;;;;;;;;19.69;47.31;97554.73;110105;1242;59712;-74
2023/05/07 08:51:53;;;;;;;;;;;;;;;19.48;47.99;97554.70;110156;1243;59757;-72
2023/05/07 08:54:21;;;;;;;;;;;;;;;19.45;48.73;97557.64;110156;1244;71331;-72
2023/05/07 08:56:51;;;;;;;;;;;;;;;19.44;48.72;97555.29;110194;1250;69267;-72
2023/05/07 08:59:20;;;;;;;;;;;;;;;19.30;51.08;97564.85;110128;1247;70017;-72
2023/05/07 09:01:49;;;;;;;;;;;;;;;19.31;49.93;97564.08;110110;1243;59685;-72
2023/05/07 09:04:18;;;;;;;;;;;;;;;19.40;48.82;97562.21;110146;1243;59735;-73
2023/05/07 09:06:47;;;;;;;;;;;;;;;19.40;49.51;97566.48;110293;1241;71234;-72
2023/05/07 09:09:20;;;;;;;;;;;;;;;19.42;50.47;97564.84;110147;1245;69806;-75
2023/05/07 09:11:56;;;;;;;;;;;;;;;19.59;49.85;97562.44;110138;1241;69307;-74
2023/05/07 09:14:26;;;;;;;;;;;;;;;19.65;49.16;97562.72;110182;1243;59815;-74
2023/05/07 09:16:56;;;;;;;;;;;;;;;19.58;47.95;97565.25;110236;1244;59688;-74
2023/05/07 09:19:25;;;;;;;;;;;;;;;19.49;48.42;97566.62;110117;1241;71220;-76
2023/05/07 09:22:01;;;;;;;;;;;;;;;19.49;48.34;97561.78;110169;1241;69286;-76
2023/05/07 09:24:36;;;;;;;;;;;;;;;19.43;48.25;97565.25;110134;1241;70025;-74
2023/05/07 09:27:06;;;;;;;;;;;;;;;19.38;48.21;97564.27;110194;1241;59749;-74
2023/05/07 09:29:37;;;;;;;;;;;;;;;19.27;49.21;97564.27;110239;1243;59688;-74
2023/05/07 09:32:07;;;;;;;;;;;;;;;19.12;49.49;97564.16;110127;1243;71385;-75
2023/05/07 09:34:37;;;;;;;;;;;;;;;19.11;49.22;97568.50;110142;1241;69097;-75
2023/05/07 09:37:07;;;;;;;;;;;;;;;19.02;50.85;97566.36;110084;1244;69216;-74
2023/05/07 09:39:39;;;;;;;;;;;;;;;18.97;52.16;97570.60;110192;1244;59685;-74
2023/05/07 09:42:08;;;;;;;;;;;;;;;18.90;53.02;97574.20;110164;1241;59699;-75
2023/05/07 09:44:38;;;;;;;;;;;;;;;18.84;53.62;97575.92;110088;1244;71997;-75
2023/05/07 09:47:10;;;;;;;;;;;;;;;18.83;54.25;97575.12;110159;1241;69042;-75
2023/05/07 09:49:47;;;;;;;;;;;;;;;18.80;53.09;97573.85;110156;1245;69182;-75
2023/05/07 09:52:19;;;;;;;;;;;;;;;18.77;53.51;97575.22;110119;1241;59747;-76
2023/05/07 09:54:51;;;;;;;;;;;;;;;18.61;55.14;97574.08;110127;1245;59797;-76
2023/05/07 09:57:22;;;;;;;;;;;;;;;18.53;56.87;97574.63;110122;1243;71415;-75
2023/05/07 09:59:56;;;;;;;;;;;;;;;18.45;58.79;97575.60;110166;1243;69997;-74
2023/05/07 10:02:29;;;;;;;;;;;;;;;18.28;59.12;97568.27;110085;1244;69728;-75
2023/05/07 10:05:00;;;;;;;;;;;;;;;18.00;61.14;97574.45;110166;1242;59683;-75
2023/05/07 10:07:31;;;;;;;;;;;;;;;17.83;62.35;97571.64;110079;1241;59603;-75
2023/05/07 10:10:06;;;;;;;;;;;;;;;17.66;62.32;97576.55;110201;1243;71355;-76
2023/05/07 10:12:40;;;;;;;;;;;;;;;17.59;63.05;97578.48;110365;1241;69687;-73
2023/05/07 10:15:16;;;;;;;;;;;;;;;17.42;64.32;97578.23;110134;1244;68785;-75
2023/05/07 10:17:49;;;;;;;;;;;;;;;17.33;65.42;97582.73;110094;1244;59744;-74
2023/05/07 10:20:18;;;;;;;;;;;;;;;17.26;65.74;97583.61;109839;1245;59798;-75
2023/05/07 10:22:50;;;;;;;;;;;;;;;17.24;67.20;97582.98;110152;1245;72073;-74
2023/05/07 10:25:25;;;;;;;;;;;;;;;17.00;67.96;97579.30;109845;1245;70708;-74
2023/05/07 10:27:55;;;;;;;;;;;;;;;16.84;67.78;97581.84;109977;1245;69959;-74
2023/05/07 10:30:32;;;;;;;;;;;;;;;16.78;67.66;97585.44;110155;1244;59693;-74
2023/05/07 10:33:05;;;;;;;;;;;;;;;16.76;67.20;97584.23;110196;1243;59646;-74
2023/05/07 10:35:40;;;;;;;;;;;;;;;16.70;68.21;97583.33;109952;1243;71270;-74
2023/05/07 10:38:09;;;;;;;;;;;;;;;16.59;71.03;97576.70;110152;1245;69223;-75
2023/05/07 10:40:39;;;;;;;;;;;;;;;16.48;70.31;97580.38;110100;1245;69142;-74
2023/05/07 10:43:08;;;;;;;;;;;;;;;16.51;71.27;97584.65;110174;1241;59703;-75
2023/05/07 10:45:42;;;;;;;;;;;;;;;16.54;71.43;97581.71;110159;1243;59698;-74
2023/05/07 10:48:12;;;;;;;;;;;;;;;16.53;72.35;97580.19;110132;1244;71772;-74
2023/05/07 10:50:49;;;;;;;;;;;;;;;16.61;73.08;97586.17;110143;1240;69975;-74
2023/05/07 10:53:18;;;;;;;;;;;;;;;16.73;72.07;97591.58;110123;1245;69271;-74
2023/05/07 10:56:27;;;;;;;;;;;;;;;16.79;71.37;97601.19;110128;1241;59800;-74
2023/05/07 10:59:31;;;;;;;;;;;;;;;16.87;70.63;97610.46;109328;1251;59660;-74
2023/05/07 11:02:07;;;;;;;;;;;;;;;16.91;69.89;97611.36;110145;1241;71340;-74
2023/05/07 11:05:15;;;;;;;;;;;;;;;16.73;72.53;97592.55;110101;1245;68364;-74
2023/05/07 11:07:53;;;;;;;;;;;;;;;16.47;75.50;97592.73;110136;1241;69833;-74
2023/05/07 11:10:23;;;;;;;;;;;;;;;16.24;77.09;97590.68;110179;1245;59746;-74
2023/05/07 11:12:57;;;;;;;;;;;;;;;16.19;76.79;97585.16;110122;1243;59648;-74
2023/05/07 11:15:38;;;;;;;;;;;;;;;16.13;78.85;97581.67;110171;1245;71377;-75
2023/05/07 11:18:15;;;;;;;;;;;;;;;16.09;79.92;97581.16;110129;1245;69829;-74
2023/05/07 11:20:58;;;;;;;;;;;;;;;16.15;78.77;97582.60;110115;1245;69692;-74
2023/05/07 11:23:50;;;;;;;;;;;;;;;16.22;81.78;97585.88;110150;1243;59747;-74
2023/05/07 11:26:25;;;;;;;;;;;;;;;16.39;77.16;97585.94;110195;1243;59688;-74
2023/05/07 11:28:54;;;;;;;;;;;;;;;16.43;77.37;97586.42;110054;1241;70427;-74
2023/05/07 11:31:25;;;;;;;;;;;;;;;16.51;76.59;97585.90;110026;1245;69209;-75
2023/05/07 11:33:55;;;;;;;;;;;;;;;16.53;79.53;97590.75;110171;1241;69150;-74
2023/05/07 11:36:24;;;;;;;;;;;;;;;16.57;75.54;97590.02;110189;1245;59740;-74
2023/05/07 11:38:54;;;;;;;;;;;;;;;16.60;76.96;97592.39;110237;1242;59721;-74
2023/05/07 11:41:22;;;;;;;;;;;;;;;16.62;74.05;97591.84;110200;1241;72110;-74
2023/05/07 11:43:56;;;;;;;;;;;;;;;16.59;75.09;97588.63;110199;1243;69999;-74
2023/05/07 11:46:25;;;;;;;;;;;;;;;16.59;76.61;97585.51;110164;1241;68326;-74
2023/05/07 11:48:54;;;;;;;;;;;;;;;16.58;77.06;97581.85;110158;1243;59746;-73
2023/05/07 11:51:26;;;;;;;;;;;;;;;16.63;76.24;97577.48;110162;1244;59688;-74
2023/05/07 11:53:54;;;;;;;;;;;;;;;16.68;74.95;97571.61;110132;1244;70628;-74
2023/05/07 11:56:23;;;;;;;;;;;;;;;16.60;75.77;97568.27;110148;1241;68418;-74
2023/05/07 11:58:52;;;;;;;;;;;;;;;16.54;75.74;97562.30;110175;1245;69126;-74
2023/05/07 12:01:20;;;;;;;;;;;;;;;16.53;75.96;97562.23;110110;1245;59814;-74
2023/05/07 12:03:49;;;;;;;;;;;;;;;16.51;75.20;97557.37;110162;1245;59694;-74
2023/05/07 12:06:18;;;;;;;;;;;;;;;16.38;74.83;97556.48;110140;1241;71249;-74
2023/05/07 12:08:47;;;;;;;;;;;;;;;16.20;75.06;97554.14;110158;1242;68102;-74
2023/05/07 12:11:21;;;;;;;;;;;;;;;16.06;75.31;97542.75;110147;1244;68345;-75
2023/05/07 12:13:49;;;;;;;;;;;;;;;15.91;76.08;97536.82;110202;1245;59689;-74
2023/05/07 12:16:19;;;;;;;;;;;;;;;15.72;78.70;97534.79;110180;1244;59656;-75
2023/05/07 12:18:48;;;;;;;;;;;;;;;15.61;80.74;97536.20;110101;1241;71403;-75
2023/05/07 12:21:17;;;;;;;;;;;;;;;15.56;80.11;97533.63;110180;1241;69175;-75
2023/05/07 12:23:46;;;;;;;;;;;;;;;15.53;79.33;97528.84;110157;1246;68100;-75
2023/05/07 12:26:14;;;;;;;;;;;;;;;15.41;78.73;97519.58;110109;1241;59738;-75
2023/05/07 12:28:43;;;;;;;;;;;;;;;15.22;79.72;97516.50;109893;1245;59678;-75
2023/05/07 12:31:14;;;;;;;;;;;;;;;15.11;79.72;97513.16;110155;1241;71676;-76
2023/05/07 12:33:43;;;;;;;;;;;;;;;15.00;81.18;97516.36;110388;1242;69852;-75